sensor_id;sensor_type;location;lat;lon;timestamp;P1;durP1;ratioP1;P2;durP2;ratioP2
61104;SDS011;46987;32.638;-115.438;2022-09-02T00:02:20;9.00;;;1.10;;
61104;SDS011;46987;32.638;-115.438;2022-09-02T00:04:49;5.55;;;1.00;;
61104;SDS011;46987;32.638;-115.438;2022-09-02T00:07:16;8.05;;;1.00;;
61104;SDS011;46987;32.638;-115.438;2022-09-02T00:09:44;5.05;;;0.90;;
61104;SDS011;46987;32.638;-115.438;2022-09-02T00:12:11;6.38;;;1.38;;
61104;SDS011;46987;32.638;-115.438;2022-09-02T00:14:38;5.95;;;1.00;;
61104;SDS011;46987;32.638;-115.438;2022-09-02T00:17:06;5.40;;;1.00;;
61104;SDS011;46987;32.638;-115.438;2022-09-02T00:19:34;10.82;;;1.25;;
61104;SDS011;46987;32.638;-115.438;2022-09-02T00:22:04;5.80;;;1.13;;
61104;SDS011;46987;32.638;-115.438;2022-09-02T00:24:32;9.38;;;0.93;;
61104;SDS011;46987;32.638;-115.438;2022-09-02T00:26:59;6.32;;;1.02;;
61104;SDS011;46987;32.638;-115.438;2022-09-02T00:29:27;5.70;;;0.75;;
61104;SDS011;46987;32.638;-115.438;2022-09-02T00:31:54;6.10;;;0.93;;
61104;SDS011;46987;32.638;-115.438;2022-09-02T00:34:21;4.55;;;0.98;;
61104;SDS011;46987;32.638;-115.438;2022-09-02T00:36:49;6.30;;;1.30;;
61104;SDS011;46987;32.638;-115.438;2022-09-02T00:39:19;6.97;;;0.88;;
61104;SDS011;46987;32.638;-115.438;2022-09-02T00:41:47;6.45;;;0.90;;
61104;SDS011;46987;32.638;-115.438;2022-09-02T00:44:15;6.38;;;1.17;;
61104;SDS011;46987;32.638;-115.438;2022-09-02T00:46:44;6.45;;;0.93;;
61104;SDS011;46987;32.638;-115.438;2022-09-02T00:49:13;4.78;;;1.02;;
61104;SDS011;46987;32.638;-115.438;2022-09-02T00:51:44;6.63;;;1.00;;
61104;SDS011;46987;32.638;-115.438;2022-09-02T00:54:14;7.32;;;1.00;;
61104;SDS011;46987;32.638;-115.438;2022-09-02T00:56:46;6.22;;;1.05;;
61104;SDS011;46987;32.638;-115.438;2022-09-02T00:59:16;4.30;;;0.73;;
61104;SDS011;46987;32.638;-115.438;2022-09-02T01:01:49;5.57;;;1.25;;
61104;SDS011;46987;32.638;-115.438;2022-09-02T01:04:16;5.80;;;1.00;;
61104;SDS011;46987;32.638;-115.438;2022-09-02T01:06:46;4.80;;;0.90;;
61104;SDS011;46987;32.638;-115.438;2022-09-02T01:09:14;8.52;;;1.15;;
61104;SDS011;46987;32.638;-115.438;2022-09-02T01:11:43;3.55;;;0.75;;
61104;SDS011;46987;32.638;-115.438;2022-09-02T01:14:16;7.63;;;1.23;;
61104;SDS011;46987;32.638;-115.438;2022-09-02T01:16:46;7.28;;;1.17;;
61104;SDS011;46987;32.638;-115.438;2022-09-02T01:21:48;3.90;;;0.57;;
61104;SDS011;46987;32.638;-115.438;2022-09-02T01:24:18;3.72;;;0.80;;
61104;SDS011;46987;32.638;-115.438;2022-09-02T01:26:47;6.35;;;0.70;;
61104;SDS011;46987;32.638;-115.438;2022-09-02T01:29:19;7.20;;;1.20;;
61104;SDS011;46987;32.638;-115.438;2022-09-02T01:31:47;6.05;;;1.05;;
61104;SDS011;46987;32.638;-115.438;2022-09-02T01:34:14;2.63;;;0.57;;
61104;SDS011;46987;32.638;-115.438;2022-09-02T01:36:42;8.32;;;0.93;;
61104;SDS011;46987;32.638;-115.438;2022-09-02T01:39:11;5.10;;;0.98;;
61104;SDS011;46987;32.638;-115.438;2022-09-02T01:41:39;6.28;;;1.35;;
61104;SDS011;46987;32.638;-115.438;2022-09-02T01:44:07;8.25;;;1.50;;
61104;SDS011;46987;32.638;-115.438;2022-09-02T01:46:36;5.18;;;0.90;;
61104;SDS011;46987;32.638;-115.438;2022-09-02T01:49:03;7.40;;;1.45;;
61104;SDS011;46987;32.638;-115.438;2022-09-02T01:51:32;5.95;;;1.42;;
61104;SDS011;46987;32.638;-115.438;2022-09-02T01:54:01;4.85;;;0.75;;
61104;SDS011;46987;32.638;-115.438;2022-09-02T01:56:30;6.25;;;1.15;;
61104;SDS011;46987;32.638;-115.438;2022-09-02T01:59:00;6.88;;;1.40;;
61104;SDS011;46987;32.638;-115.438;2022-09-02T02:01:28;9.63;;;1.60;;
61104;SDS011;46987;32.638;-115.438;2022-09-02T02:03:56;9.00;;;1.20;;
61104;SDS011;46987;32.638;-115.438;2022-09-02T02:06:23;4.40;;;1.13;;
61104;SDS011;46987;32.638;-115.438;2022-09-02T02:08:52;14.20;;;2.17;;
61104;SDS011;46987;32.638;-115.438;2022-09-02T02:11:21;7.88;;;1.88;;
61104;SDS011;46987;32.638;-115.438;2022-09-02T02:13:57;8.45;;;1.90;;
61104;SDS011;46987;32.638;-115.438;2022-09-02T02:16:25;9.32;;;1.90;;
61104;SDS011;46987;32.638;-115.438;2022-09-02T02:18:52;10.50;;;2.30;;
61104;SDS011;46987;32.638;-115.438;2022-09-02T02:21:19;12.25;;;2.15;;
61104;SDS011;46987;32.638;-115.438;2022-09-02T02:23:47;12.45;;;2.33;;
61104;SDS011;46987;32.638;-115.438;2022-09-02T02:26:14;8.05;;;2.33;;
61104;SDS011;46987;32.638;-115.438;2022-09-02T02:28:41;9.27;;;1.95;;
61104;SDS011;46987;32.638;-115.438;2022-09-02T02:31:10;9.77;;;2.05;;
61104;SDS011;46987;32.638;-115.438;2022-09-02T02:33:39;8.80;;;1.80;;
61104;SDS011;46987;32.638;-115.438;2022-09-02T02:36:07;9.88;;;1.80;;
61104;SDS011;46987;32.638;-115.438;2022-09-02T02:38:35;8.50;;;1.67;;
61104;SDS011;46987;32.638;-115.438;2022-09-02T02:41:03;7.22;;;1.77;;
61104;SDS011;46987;32.638;-115.438;2022-09-02T02:43:31;12.45;;;2.03;;
61104;SDS011;46987;32.638;-115.438;2022-09-02T02:45:59;5.43;;;1.30;;
61104;SDS011;46987;32.638;-115.438;2022-09-02T02:48:28;10.27;;;1.80;;
61104;SDS011;46987;32.638;-115.438;2022-09-02T02:50:55;6.15;;;1.67;;
61104;SDS011;46987;32.638;-115.438;2022-09-02T02:53:23;11.27;;;1.90;;
61104;SDS011;46987;32.638;-115.438;2022-09-02T02:55:50;10.93;;;2.00;;
61104;SDS011;46987;32.638;-115.438;2022-09-02T02:58:18;10.52;;;2.45;;
61104;SDS011;46987;32.638;-115.438;2022-09-02T03:00:46;10.55;;;2.50;;
61104;SDS011;46987;32.638;-115.438;2022-09-02T03:03:15;13.95;;;2.15;;
61104;SDS011;46987;32.638;-115.438;2022-09-02T03:05:52;13.75;;;2.30;;
61104;SDS011;46987;32.638;-115.438;2022-09-02T03:08:21;15.38;;;2.38;;
61104;SDS011;46987;32.638;-115.438;2022-09-02T03:10:51;15.05;;;3.05;;
61104;SDS011;46987;32.638;-115.438;2022-09-02T03:13:24;12.93;;;2.45;;
61104;SDS011;46987;32.638;-115.438;2022-09-02T03:15:54;14.55;;;2.13;;
61104;SDS011;46987;32.638;-115.438;2022-09-02T03:18:22;13.43;;;2.15;;
61104;SDS011;46987;32.638;-115.438;2022-09-02T03:20:49;16.60;;;2.55;;
61104;SDS011;46987;32.638;-115.438;2022-09-02T03:23:18;6.43;;;1.70;;
61104;SDS011;46987;32.638;-115.438;2022-09-02T03:25:48;13.95;;;2.40;;
61104;SDS011;46987;32.638;-115.438;2022-09-02T03:28:36;14.02;;;1.92;;
61104;SDS011;46987;32.638;-115.438;2022-09-02T03:31:12;22.35;;;2.40;;
61104;SDS011;46987;32.638;-115.438;2022-09-02T03:33:42;17.95;;;2.58;;
61104;SDS011;46987;32.638;-115.438;2022-09-02T03:36:19;12.90;;;2.40;;
61104;SDS011;46987;32.638;-115.438;2022-09-02T03:38:49;11.30;;;1.67;;
61104;SDS011;46987;32.638;-115.438;2022-09-02T03:41:18;15.93;;;2.45;;
61104;SDS011;46987;32.638;-115.438;2022-09-02T03:43:46;13.80;;;2.03;;
61104;SDS011;46987;32.638;-115.438;2022-09-02T03:46:14;9.18;;;1.75;;
61104;SDS011;46987;32.638;-115.438;2022-09-02T03:48:43;19.42;;;2.88;;
61104;SDS011;46987;32.638;-115.438;2022-09-02T03:51:12;14.85;;;2.58;;
61104;SDS011;46987;32.638;-115.438;2022-09-02T03:53:42;12.15;;;2.17;;
61104;SDS011;46987;32.638;-115.438;2022-09-02T03:56:10;16.75;;;2.42;;
61104;SDS011;46987;32.638;-115.438;2022-09-02T03:58:40;12.10;;;2.03;;
61104;SDS011;46987;32.638;-115.438;2022-09-02T04:01:11;10.75;;;2.05;;
61104;SDS011;46987;32.638;-115.438;2022-09-02T04:03:39;10.80;;;2.03;;
61104;SDS011;46987;32.638;-115.438;2022-09-02T04:06:08;10.13;;;1.73;;
61104;SDS011;46987;32.638;-115.438;2022-09-02T04:08:37;8.82;;;1.50;;
61104;SDS011;46987;32.638;-115.438;2022-09-02T04:11:08;12.75;;;1.98;;
61104;SDS011;46987;32.638;-115.438;2022-09-02T04:13:38;10.02;;;1.80;;
61104;SDS011;46987;32.638;-115.438;2022-09-02T04:16:06;13.95;;;2.00;;
61104;SDS011;46987;32.638;-115.438;2022-09-02T04:18:34;9.57;;;1.67;;
61104;SDS011;46987;32.638;-115.438;2022-09-02T04:21:01;9.63;;;2.00;;
61104;SDS011;46987;32.638;-115.438;2022-09-02T04:23:32;14.80;;;2.28;;
61104;SDS011;46987;32.638;-115.438;2022-09-02T04:26:02;21.35;;;3.15;;
61104;SDS011;46987;32.638;-115.438;2022-09-02T04:31:02;12.05;;;2.95;;
61104;SDS011;46987;32.638;-115.438;2022-09-02T04:33:30;10.35;;;3.15;;
61104;SDS011;46987;32.638;-115.438;2022-09-02T04:35:57;17.60;;;2.58;;
61104;SDS011;46987;32.638;-115.438;2022-09-02T04:38:25;14.98;;;3.50;;
61104;SDS011;46987;32.638;-115.438;2022-09-02T04:40:53;12.68;;;3.10;;
61104;SDS011;46987;32.638;-115.438;2022-09-02T04:43:21;14.48;;;4.35;;
61104;SDS011;46987;32.638;-115.438;2022-09-02T04:45:50;14.85;;;4.43;;
61104;SDS011;46987;32.638;-115.438;2022-09-02T04:48:18;15.93;;;4.70;;
61104;SDS011;46987;32.638;-115.438;2022-09-02T04:50:47;12.98;;;4.00;;
61104;SDS011;46987;32.638;-115.438;2022-09-02T04:53:16;10.65;;;3.80;;
61104;SDS011;46987;32.638;-115.438;2022-09-02T04:55:43;14.13;;;4.10;;
61104;SDS011;46987;32.638;-115.438;2022-09-02T04:58:12;16.30;;;4.18;;
61104;SDS011;46987;32.638;-115.438;2022-09-02T05:00:42;15.27;;;4.80;;
61104;SDS011;46987;32.638;-115.438;2022-09-02T05:03:13;17.02;;;4.57;;
61104;SDS011;46987;32.638;-115.438;2022-09-02T05:05:43;15.23;;;3.97;;
61104;SDS011;46987;32.638;-115.438;2022-09-02T05:08:12;19.50;;;4.15;;
61104;SDS011;46987;32.638;-115.438;2022-09-02T05:10:43;16.15;;;3.95;;
61104;SDS011;46987;32.638;-115.438;2022-09-02T05:13:13;16.15;;;3.60;;
61104;SDS011;46987;32.638;-115.438;2022-09-02T05:15:40;13.45;;;3.17;;
61104;SDS011;46987;32.638;-115.438;2022-09-02T05:18:11;19.52;;;3.80;;
61104;SDS011;46987;32.638;-115.438;2022-09-02T05:20:40;19.08;;;3.95;;
61104;SDS011;46987;32.638;-115.438;2022-09-02T05:23:11;14.90;;;3.83;;
61104;SDS011;46987;32.638;-115.438;2022-09-02T05:25:43;20.17;;;4.25;;
61104;SDS011;46987;32.638;-115.438;2022-09-02T05:28:10;16.25;;;3.63;;
61104;SDS011;46987;32.638;-115.438;2022-09-02T05:30:39;18.40;;;3.70;;
61104;SDS011;46987;32.638;-115.438;2022-09-02T05:33:08;15.38;;;3.58;;
61104;SDS011;46987;32.638;-115.438;2022-09-02T05:35:40;13.27;;;2.92;;
61104;SDS011;46987;32.638;-115.438;2022-09-02T05:38:09;14.73;;;2.58;;
61104;SDS011;46987;32.638;-115.438;2022-09-02T05:40:36;13.20;;;2.38;;
61104;SDS011;46987;32.638;-115.438;2022-09-02T05:43:06;15.60;;;2.38;;
61104;SDS011;46987;32.638;-115.438;2022-09-02T05:45:36;13.57;;;2.90;;
61104;SDS011;46987;32.638;-115.438;2022-09-02T05:48:05;12.57;;;2.95;;
61104;SDS011;46987;32.638;-115.438;2022-09-02T05:50:54;15.82;;;2.28;;
61104;SDS011;46987;32.638;-115.438;2022-09-02T05:53:21;16.23;;;2.70;;
61104;SDS011;46987;32.638;-115.438;2022-09-02T05:55:52;10.70;;;3.10;;
61104;SDS011;46987;32.638;-115.438;2022-09-02T05:58:19;12.10;;;3.70;;
61104;SDS011;46987;32.638;-115.438;2022-09-02T06:00:47;10.10;;;3.55;;
61104;SDS011;46987;32.638;-115.438;2022-09-02T06:03:15;14.57;;;4.18;;
61104;SDS011;46987;32.638;-115.438;2022-09-02T06:05:52;12.45;;;3.50;;
61104;SDS011;46987;32.638;-115.438;2022-09-02T06:08:25;13.17;;;3.37;;
61104;SDS011;46987;32.638;-115.438;2022-09-02T06:10:57;15.43;;;3.30;;
61104;SDS011;46987;32.638;-115.438;2022-09-02T06:13:28;13.70;;;3.47;;
61104;SDS011;46987;32.638;-115.438;2022-09-02T06:15:56;15.68;;;3.53;;
61104;SDS011;46987;32.638;-115.438;2022-09-02T06:18:28;15.00;;;3.03;;
61104;SDS011;46987;32.638;-115.438;2022-09-02T06:20:59;17.98;;;3.22;;
61104;SDS011;46987;32.638;-115.438;2022-09-02T06:23:33;12.15;;;2.47;;
61104;SDS011;46987;32.638;-115.438;2022-09-02T06:26:04;8.30;;;2.10;;
61104;SDS011;46987;32.638;-115.438;2022-09-02T06:28:33;10.52;;;2.30;;
61104;SDS011;46987;32.638;-115.438;2022-09-02T06:31:05;9.68;;;2.20;;
61104;SDS011;46987;32.638;-115.438;2022-09-02T06:33:33;10.45;;;2.03;;
61104;SDS011;46987;32.638;-115.438;2022-09-02T06:36:03;7.45;;;1.55;;
61104;SDS011;46987;32.638;-115.438;2022-09-02T06:38:38;6.35;;;1.20;;
61104;SDS011;46987;32.638;-115.438;2022-09-02T06:43:40;6.78;;;1.77;;
61104;SDS011;46987;32.638;-115.438;2022-09-02T06:46:14;8.00;;;2.08;;
61104;SDS011;46987;32.638;-115.438;2022-09-02T06:48:48;13.63;;;2.35;;
61104;SDS011;46987;32.638;-115.438;2022-09-02T06:51:20;9.57;;;1.92;;
61104;SDS011;46987;32.638;-115.438;2022-09-02T06:53:50;7.80;;;1.73;;
61104;SDS011;46987;32.638;-115.438;2022-09-02T06:56:19;8.80;;;1.40;;
61104;SDS011;46987;32.638;-115.438;2022-09-02T06:58:47;8.30;;;1.50;;
61104;SDS011;46987;32.638;-115.438;2022-09-02T07:01:18;6.80;;;1.50;;
61104;SDS011;46987;32.638;-115.438;2022-09-02T07:06:35;10.07;;;1.20;;
61104;SDS011;46987;32.638;-115.438;2022-09-02T07:09:05;7.43;;;1.45;;
61104;SDS011;46987;32.638;-115.438;2022-09-02T07:11:35;3.28;;;1.20;;
61104;SDS011;46987;32.638;-115.438;2022-09-02T07:14:06;10.98;;;1.80;;
61104;SDS011;46987;32.638;-115.438;2022-09-02T07:16:35;8.52;;;1.30;;
61104;SDS011;46987;32.638;-115.438;2022-09-02T07:19:07;7.35;;;1.80;;
61104;SDS011;46987;32.638;-115.438;2022-09-02T07:21:38;10.02;;;1.50;;
61104;SDS011;46987;32.638;-115.438;2022-09-02T07:24:07;8.20;;;1.60;;
61104;SDS011;46987;32.638;-115.438;2022-09-02T07:26:36;8.00;;;1.70;;
61104;SDS011;46987;32.638;-115.438;2022-09-02T07:29:04;8.50;;;1.77;;
61104;SDS011;46987;32.638;-115.438;2022-09-02T07:31:34;9.25;;;2.05;;
61104;SDS011;46987;32.638;-115.438;2022-09-02T07:34:04;6.28;;;1.80;;
61104;SDS011;46987;32.638;-115.438;2022-09-02T07:36:32;10.02;;;2.42;;
61104;SDS011;46987;32.638;-115.438;2022-09-02T07:39:02;10.75;;;2.13;;
61104;SDS011;46987;32.638;-115.438;2022-09-02T07:41:31;14.10;;;2.67;;
61104;SDS011;46987;32.638;-115.438;2022-09-02T07:44:00;18.30;;;2.33;;
61104;SDS011;46987;32.638;-115.438;2022-09-02T07:46:28;6.28;;;1.90;;
61104;SDS011;46987;32.638;-115.438;2022-09-02T07:48:57;10.07;;;1.80;;
61104;SDS011;46987;32.638;-115.438;2022-09-02T07:51:25;12.43;;;1.73;;
61104;SDS011;46987;32.638;-115.438;2022-09-02T07:53:53;19.33;;;2.28;;
61104;SDS011;46987;32.638;-115.438;2022-09-02T07:56:22;15.45;;;2.20;;
61104;SDS011;46987;32.638;-115.438;2022-09-02T07:58:49;15.13;;;1.90;;
61104;SDS011;46987;32.638;-115.438;2022-09-02T08:01:17;14.68;;;1.90;;
61104;SDS011;46987;32.638;-115.438;2022-09-02T08:03:48;13.57;;;2.13;;
61104;SDS011;46987;32.638;-115.438;2022-09-02T08:06:15;17.90;;;2.28;;
61104;SDS011;46987;32.638;-115.438;2022-09-02T08:08:43;13.25;;;2.10;;
61104;SDS011;46987;32.638;-115.438;2022-09-02T08:11:10;12.10;;;1.67;;
61104;SDS011;46987;32.638;-115.438;2022-09-02T08:13:40;13.57;;;2.10;;
61104;SDS011;46987;32.638;-115.438;2022-09-02T08:16:07;15.55;;;2.60;;
61104;SDS011;46987;32.638;-115.438;2022-09-02T08:18:34;11.90;;;1.70;;
61104;SDS011;46987;32.638;-115.438;2022-09-02T08:21:02;7.22;;;1.85;;
61104;SDS011;46987;32.638;-115.438;2022-09-02T08:23:29;7.38;;;1.67;;
61104;SDS011;46987;32.638;-115.438;2022-09-02T08:25:58;12.02;;;1.90;;
61104;SDS011;46987;32.638;-115.438;2022-09-02T08:28:25;10.13;;;1.90;;
61104;SDS011;46987;32.638;-115.438;2022-09-02T08:30:54;11.10;;;1.70;;
61104;SDS011;46987;32.638;-115.438;2022-09-02T08:33:23;9.07;;;1.90;;
61104;SDS011;46987;32.638;-115.438;2022-09-02T08:35:50;11.68;;;2.53;;
61104;SDS011;46987;32.638;-115.438;2022-09-02T08:38:18;11.57;;;1.90;;
61104;SDS011;46987;32.638;-115.438;2022-09-02T08:40:47;13.50;;;2.17;;
61104;SDS011;46987;32.638;-115.438;2022-09-02T08:43:21;7.45;;;2.45;;
61104;SDS011;46987;32.638;-115.438;2022-09-02T08:45:56;8.93;;;2.55;;
61104;SDS011;46987;32.638;-115.438;2022-09-02T08:48:31;12.23;;;2.40;;
61104;SDS011;46987;32.638;-115.438;2022-09-02T08:51:04;10.55;;;2.50;;
61104;SDS011;46987;32.638;-115.438;2022-09-02T08:53:36;9.55;;;2.28;;
61104;SDS011;46987;32.638;-115.438;2022-09-02T08:56:11;12.73;;;2.15;;
61104;SDS011;46987;32.638;-115.438;2022-09-02T08:58:43;13.40;;;2.67;;
61104;SDS011;46987;32.638;-115.438;2022-09-02T09:01:19;8.35;;;2.50;;
61104;SDS011;46987;32.638;-115.438;2022-09-02T09:04:03;14.65;;;2.67;;
61104;SDS011;46987;32.638;-115.438;2022-09-02T09:06:39;12.10;;;2.05;;
61104;SDS011;46987;32.638;-115.438;2022-09-02T09:09:15;10.93;;;2.10;;
61104;SDS011;46987;32.638;-115.438;2022-09-02T09:11:54;14.68;;;2.40;;
61104;SDS011;46987;32.638;-115.438;2022-09-02T09:14:28;12.82;;;1.95;;
61104;SDS011;46987;32.638;-115.438;2022-09-02T09:17:04;7.65;;;1.98;;
61104;SDS011;46987;32.638;-115.438;2022-09-02T09:19:45;8.90;;;2.10;;
61104;SDS011;46987;32.638;-115.438;2022-09-02T09:22:16;14.32;;;2.42;;
61104;SDS011;46987;32.638;-115.438;2022-09-02T09:24:45;10.85;;;1.63;;
61104;SDS011;46987;32.638;-115.438;2022-09-02T09:27:15;8.32;;;1.88;;
61104;SDS011;46987;32.638;-115.438;2022-09-02T09:29:43;8.35;;;1.90;;
61104;SDS011;46987;32.638;-115.438;2022-09-02T09:32:14;9.43;;;2.10;;
61104;SDS011;46987;32.638;-115.438;2022-09-02T09:34:54;8.15;;;1.98;;
61104;SDS011;46987;32.638;-115.438;2022-09-02T09:37:34;10.02;;;2.05;;
61104;SDS011;46987;32.638;-115.438;2022-09-02T09:40:22;10.40;;;1.80;;
61104;SDS011;46987;32.638;-115.438;2022-09-02T09:42:56;9.18;;;2.03;;
61104;SDS011;46987;32.638;-115.438;2022-09-02T09:45:26;7.15;;;1.75;;
61104;SDS011;46987;32.638;-115.438;2022-09-02T09:48:18;7.22;;;2.00;;
61104;SDS011;46987;32.638;-115.438;2022-09-02T09:51:10;7.55;;;3.20;;
61104;SDS011;46987;32.638;-115.438;2022-09-02T09:53:39;12.75;;;2.50;;
61104;SDS011;46987;32.638;-115.438;2022-09-02T09:56:18;13.40;;;2.10;;
61104;SDS011;46987;32.638;-115.438;2022-09-02T09:58:52;8.25;;;1.63;;
61104;SDS011;46987;32.638;-115.438;2022-09-02T10:01:21;11.23;;;2.25;;
61104;SDS011;46987;32.638;-115.438;2022-09-02T10:03:52;9.20;;;2.30;;
61104;SDS011;46987;32.638;-115.438;2022-09-02T10:06:23;7.97;;;2.15;;
61104;SDS011;46987;32.638;-115.438;2022-09-02T10:09:01;11.38;;;2.17;;
61104;SDS011;46987;32.638;-115.438;2022-09-02T10:11:31;11.90;;;2.60;;
61104;SDS011;46987;32.638;-115.438;2022-09-02T10:13:59;11.43;;;2.22;;
61104;SDS011;46987;32.638;-115.438;2022-09-02T10:16:38;9.80;;;2.78;;
61104;SDS011;46987;32.638;-115.438;2022-09-02T10:19:23;10.02;;;1.63;;
61104;SDS011;46987;32.638;-115.438;2022-09-02T10:21:59;11.80;;;2.30;;
61104;SDS011;46987;32.638;-115.438;2022-09-02T10:24:48;10.95;;;2.20;;
61104;SDS011;46987;32.638;-115.438;2022-09-02T10:27:28;13.02;;;2.60;;
61104;SDS011;46987;32.638;-115.438;2022-09-02T10:30:03;10.20;;;2.33;;
61104;SDS011;46987;32.638;-115.438;2022-09-02T10:32:39;9.23;;;2.22;;
61104;SDS011;46987;32.638;-115.438;2022-09-02T10:35:23;14.40;;;2.63;;
61104;SDS011;46987;32.638;-115.438;2022-09-02T10:38:08;10.82;;;2.20;;
61104;SDS011;46987;32.638;-115.438;2022-09-02T10:40:54;11.48;;;2.45;;
61104;SDS011;46987;32.638;-115.438;2022-09-02T10:43:32;12.02;;;2.45;;
61104;SDS011;46987;32.638;-115.438;2022-09-02T10:46:15;11.13;;;2.47;;
61104;SDS011;46987;32.638;-115.438;2022-09-02T10:53:56;13.90;;;2.30;;
61104;SDS011;46987;32.638;-115.438;2022-09-02T10:56:36;11.18;;;2.28;;
61104;SDS011;46987;32.638;-115.438;2022-09-02T10:59:10;14.07;;;2.70;;
61104;SDS011;46987;32.638;-115.438;2022-09-02T11:04:12;12.80;;;2.17;;
61104;SDS011;46987;32.638;-115.438;2022-09-02T11:06:46;8.00;;;1.92;;
61104;SDS011;46987;32.638;-115.438;2022-09-02T11:09:21;10.67;;;1.87;;
61104;SDS011;46987;32.638;-115.438;2022-09-02T11:11:56;10.68;;;2.30;;
61104;SDS011;46987;32.638;-115.438;2022-09-02T11:14:26;7.20;;;1.83;;
61104;SDS011;46987;32.638;-115.438;2022-09-02T11:17:01;8.18;;;1.95;;
61104;SDS011;46987;32.638;-115.438;2022-09-02T11:19:34;7.95;;;1.80;;
61104;SDS011;46987;32.638;-115.438;2022-09-02T11:22:11;8.38;;;2.00;;
61104;SDS011;46987;32.638;-115.438;2022-09-02T11:24:46;11.25;;;1.92;;
61104;SDS011;46987;32.638;-115.438;2022-09-02T11:27:20;12.02;;;2.17;;
61104;SDS011;46987;32.638;-115.438;2022-09-02T11:29:59;12.15;;;2.22;;
61104;SDS011;46987;32.638;-115.438;2022-09-02T11:32:34;7.68;;;1.77;;
61104;SDS011;46987;32.638;-115.438;2022-09-02T11:35:07;8.13;;;1.83;;
61104;SDS011;46987;32.638;-115.438;2022-09-02T11:37:42;12.20;;;3.10;;
61104;SDS011;46987;32.638;-115.438;2022-09-02T11:40:17;10.18;;;1.90;;
61104;SDS011;46987;32.638;-115.438;2022-09-02T11:42:58;11.95;;;2.05;;
61104;SDS011;46987;32.638;-115.438;2022-09-02T11:45:40;9.45;;;2.15;;
61104;SDS011;46987;32.638;-115.438;2022-09-02T11:51:27;8.77;;;1.55;;
61104;SDS011;46987;32.638;-115.438;2022-09-02T11:54:08;8.57;;;2.25;;
61104;SDS011;46987;32.638;-115.438;2022-09-02T11:56:40;12.77;;;2.30;;
61104;SDS011;46987;32.638;-115.438;2022-09-02T11:59:18;7.55;;;2.03;;
61104;SDS011;46987;32.638;-115.438;2022-09-02T12:01:47;7.80;;;2.30;;
61104;SDS011;46987;32.638;-115.438;2022-09-02T12:04:20;8.65;;;2.17;;
61104;SDS011;46987;32.638;-115.438;2022-09-02T12:09:53;8.90;;;2.13;;
61104;SDS011;46987;32.638;-115.438;2022-09-02T12:15:28;7.47;;;1.90;;
61104;SDS011;46987;32.638;-115.438;2022-09-02T12:21:03;10.75;;;2.45;;
61104;SDS011;46987;32.638;-115.438;2022-09-02T12:29:35;10.07;;;2.63;;
61104;SDS011;46987;32.638;-115.438;2022-09-02T12:32:03;9.60;;;3.05;;
61104;SDS011;46987;32.638;-115.438;2022-09-02T12:34:52;8.65;;;2.15;;
61104;SDS011;46987;32.638;-115.438;2022-09-02T12:40:22;12.38;;;2.90;;
61104;SDS011;46987;32.638;-115.438;2022-09-02T12:42:56;10.38;;;2.15;;
61104;SDS011;46987;32.638;-115.438;2022-09-02T12:45:27;13.55;;;2.88;;
61104;SDS011;46987;32.638;-115.438;2022-09-02T12:47:58;13.70;;;2.90;;
61104;SDS011;46987;32.638;-115.438;2022-09-02T12:50:28;16.17;;;2.90;;
61104;SDS011;46987;32.638;-115.438;2022-09-02T12:53:13;11.95;;;2.60;;
61104;SDS011;46987;32.638;-115.438;2022-09-02T12:55:58;11.20;;;2.40;;
61104;SDS011;46987;32.638;-115.438;2022-09-02T12:58:31;9.07;;;2.15;;
61104;SDS011;46987;32.638;-115.438;2022-09-02T13:01:04;11.68;;;2.90;;
61104;SDS011;46987;32.638;-115.438;2022-09-02T13:03:42;10.02;;;2.40;;
61104;SDS011;46987;32.638;-115.438;2022-09-02T13:06:24;9.77;;;2.22;;
61104;SDS011;46987;32.638;-115.438;2022-09-02T13:09:14;8.52;;;2.63;;
61104;SDS011;46987;32.638;-115.438;2022-09-02T13:12:10;13.50;;;3.25;;
61104;SDS011;46987;32.638;-115.438;2022-09-02T13:15:02;12.00;;;2.63;;
61104;SDS011;46987;32.638;-115.438;2022-09-02T13:17:45;9.10;;;2.28;;
61104;SDS011;46987;32.638;-115.438;2022-09-02T13:26:26;9.40;;;2.25;;
61104;SDS011;46987;32.638;-115.438;2022-09-02T13:29:38;9.40;;;2.17;;
61104;SDS011;46987;32.638;-115.438;2022-09-02T13:32:29;6.57;;;1.98;;
61104;SDS011;46987;32.638;-115.438;2022-09-02T13:34:59;8.52;;;2.42;;
61104;SDS011;46987;32.638;-115.438;2022-09-02T13:37:35;13.15;;;2.53;;
61104;SDS011;46987;32.638;-115.438;2022-09-02T13:40:08;8.50;;;2.25;;
61104;SDS011;46987;32.638;-115.438;2022-09-02T13:42:47;8.35;;;2.42;;
61104;SDS011;46987;32.638;-115.438;2022-09-02T13:45:16;12.13;;;2.05;;
61104;SDS011;46987;32.638;-115.438;2022-09-02T13:47:46;9.10;;;2.42;;
61104;SDS011;46987;32.638;-115.438;2022-09-02T13:50:16;12.93;;;2.20;;
61104;SDS011;46987;32.638;-115.438;2022-09-02T13:52:47;14.10;;;2.88;;
61104;SDS011;46987;32.638;-115.438;2022-09-02T13:55:17;12.52;;;2.92;;
61104;SDS011;46987;32.638;-115.438;2022-09-02T13:57:47;11.38;;;3.38;;
61104;SDS011;46987;32.638;-115.438;2022-09-02T14:00:25;9.23;;;2.65;;
61104;SDS011;46987;32.638;-115.438;2022-09-02T14:03:00;10.57;;;2.72;;
61104;SDS011;46987;32.638;-115.438;2022-09-02T14:05:31;14.15;;;2.55;;
61104;SDS011;46987;32.638;-115.438;2022-09-02T14:08:01;9.85;;;2.70;;
61104;SDS011;46987;32.638;-115.438;2022-09-02T14:10:31;11.10;;;2.80;;
61104;SDS011;46987;32.638;-115.438;2022-09-02T14:13:01;9.35;;;2.53;;
61104;SDS011;46987;32.638;-115.438;2022-09-02T14:15:30;9.80;;;2.55;;
61104;SDS011;46987;32.638;-115.438;2022-09-02T14:20:57;11.00;;;2.72;;
61104;SDS011;46987;32.638;-115.438;2022-09-02T14:23:26;10.90;;;2.83;;
61104;SDS011;46987;32.638;-115.438;2022-09-02T14:25:58;12.95;;;2.67;;
61104;SDS011;46987;32.638;-115.438;2022-09-02T14:28:27;10.95;;;2.67;;
61104;SDS011;46987;32.638;-115.438;2022-09-02T14:30:57;9.15;;;2.45;;
61104;SDS011;46987;32.638;-115.438;2022-09-02T14:33:36;11.55;;;2.88;;
61104;SDS011;46987;32.638;-115.438;2022-09-02T14:36:05;12.73;;;3.50;;
61104;SDS011;46987;32.638;-115.438;2022-09-02T14:38:35;12.32;;;3.28;;
61104;SDS011;46987;32.638;-115.438;2022-09-02T14:41:18;11.35;;;3.00;;
61104;SDS011;46987;32.638;-115.438;2022-09-02T14:43:48;12.75;;;3.47;;
61104;SDS011;46987;32.638;-115.438;2022-09-02T14:46:28;9.63;;;2.88;;
61104;SDS011;46987;32.638;-115.438;2022-09-02T14:49:00;9.02;;;2.70;;
61104;SDS011;46987;32.638;-115.438;2022-09-02T14:51:31;9.60;;;2.30;;
61104;SDS011;46987;32.638;-115.438;2022-09-02T14:54:03;9.80;;;2.95;;
61104;SDS011;46987;32.638;-115.438;2022-09-02T14:56:48;13.93;;;2.58;;
61104;SDS011;46987;32.638;-115.438;2022-09-02T14:59:16;12.75;;;3.80;;
61104;SDS011;46987;32.638;-115.438;2022-09-02T15:01:46;11.02;;;2.70;;
61104;SDS011;46987;32.638;-115.438;2022-09-02T15:04:17;11.90;;;2.72;;
61104;SDS011;46987;32.638;-115.438;2022-09-02T15:06:44;17.27;;;3.42;;
61104;SDS011;46987;32.638;-115.438;2022-09-02T15:09:12;9.35;;;2.67;;
61104;SDS011;46987;32.638;-115.438;2022-09-02T15:11:41;10.70;;;2.85;;
61104;SDS011;46987;32.638;-115.438;2022-09-02T15:14:11;11.73;;;2.53;;
61104;SDS011;46987;32.638;-115.438;2022-09-02T15:16:38;11.60;;;2.75;;